Hauptseite
METAR-TAF:

METAR-TAF

Flughäfen :

Riga, Lettland

Flughafen Riga

Breite: 56-55N, Länge: 023-58E, Höhe: 10 m

Beobachtung

Neuester Wetterbericht von vor 42 Minuten, um 07:50 UTC
Wind 5 kt aus Ost, variierte zwischen Ost/Nordost und Südost
Temperatur 15°C
Luftfeuchtigkeit 72%
Luftdruck 1030 hPa
Sichtweite 10 km oder mehr
keine Wolken unter 1500 m und keine Kumulonimbus oder Gewitterwolken

METAR: EVRA 240750Z 10005KT 060V140 CAVOK 15/10 Q1030 NOSIG

Zeit: 11:32 (08:32 UTC)

Prognose

Neuester Wetterbericht von vor 3 Stunden und 31 Minuten, um 05:01 UTC
Gültige Prognose vom 24 um 06 UTC bis 25 um 06 UTC
Wind 7 kt aus Ost
Sichtweite 10 km oder mehr
keine Wolken unter 1500 m und keine Kumulonimbus oder Gewitterwolken

TAF: EVRA 240501Z 2406/2506 09007KT CAVOK

Wetterbeobachtungen und Prognosen von mehr als 4000 Flughäfen (METAR und TAF Bericht).

Die verfügbaren Stationen werden durch gelbe und rote Markierungen auf der Karte dargestellt.

Führen Sie die Maus auf sie, um den Namen der Station zu sehen.

Darauf klicken, um die Beobachtung von Wetterbeobachtungen und Prognosen zu sehen.

Um die Karte zu ändern : klicken Sie auf den grünen Tasten mit einem schwarzen Kreuz Zum Vergrößern, auf den grünen Button mit einem Gedankenstrich zu verkleinern, oder auf die grünen Pfeile für benachbarte Karten.


METAR-TAF: